Time;durP1;ratioP1;P1;durP2;ratioP2;P2;SDS_P1;SDS_P2;PMS_P1;PMS_P2;Temp;Humidity;BMP_temperature;BMP_pressure;BME280_temperature;BME280_humidity;BME280_pressure;Samples;Min_cycle;Max_cycle;Signal;HPM_P1;HPM_P2
2022/10/10 00:00:31;;;;;;;;;21.33;19.33;;;;;11.40;84.16;100974.75;5001225;28;46535;-78
2022/10/10 00:02:57;;;;;;;;;21.00;19.00;;;;;11.39;84.33;100971.25;5018906;28;45368;-78
2022/10/10 00:05:22;;;;;;;;;21.67;18.67;;;;;11.33;84.11;100961.28;5019247;28;45704;-78
2022/10/10 00:07:48;;;;;;;;;25.00;22.00;;;;;11.37;83.52;100970.56;5019086;28;45767;-78
2022/10/10 00:10:13;;;;;;;;;24.67;20.67;;;;;11.32;83.89;100962.31;5000913;28;46954;-78
2022/10/10 00:12:38;;;;;;;;;19.00;18.00;;;;;11.35;84.18;100969.94;5019150;28;45381;-78
2022/10/10 00:15:05;;;;;;;;;20.67;19.67;;;;;11.30;84.11;100964.31;5018846;28;45245;-78
2022/10/10 00:17:30;;;;;;;;;20.67;20.33;;;;;11.27;83.95;100965.47;5018989;28;45331;-78
2022/10/10 00:19:56;;;;;;;;;19.67;19.67;;;;;11.27;84.20;100975.28;5018859;28;45316;-78
2022/10/10 00:22:21;;;;;;;;;20.67;17.33;;;;;11.26;83.98;100960.34;5018854;28;45342;-78
2022/10/10 00:24:46;;;;;;;;;22.67;22.67;;;;;11.21;84.02;100961.69;5001136;28;45233;-78
2022/10/10 00:27:12;;;;;;;;;19.67;19.33;;;;;11.26;83.93;100963.00;5000876;28;46302;-78
2022/10/10 00:29:37;;;;;;;;;19.33;18.33;;;;;11.28;84.03;100961.00;5018704;28;45341;-78
2022/10/10 00:32:03;;;;;;;;;20.00;19.00;;;;;11.32;84.25;100965.78;5000706;28;45844;-78
2022/10/10 00:34:28;;;;;;;;;18.67;16.00;;;;;11.26;84.42;100955.00;5019016;28;45521;-78
2022/10/10 00:36:53;;;;;;;;;17.33;17.33;;;;;11.20;84.69;100949.38;5001023;28;45994;-78
2022/10/10 00:39:19;;;;;;;;;19.00;18.00;;;;;11.27;84.98;100961.97;5018698;28;45451;-78
2022/10/10 00:41:44;;;;;;;;;21.33;18.33;;;;;11.28;84.86;100961.81;5018847;28;45395;-77
2022/10/10 00:44:12;;;;;;;;;19.00;16.67;;;;;11.31;84.86;100965.97;5020935;28;45441;-78
2022/10/10 00:46:38;;;;;;;;;16.33;16.00;;;;;11.29;84.82;100954.66;5021979;28;45337;-78
2022/10/10 00:49:09;;;;;;;;;18.33;17.00;;;;;11.32;85.10;100959.66;5022040;28;45246;-78
2022/10/10 00:51:36;;;;;;;;;20.00;19.67;;;;;11.29;85.27;100946.69;5022028;28;45351;-77
2022/10/10 00:54:09;;;;;;;;;20.00;19.33;;;;;11.35;85.06;100953.97;5022118;28;45282;-78
2022/10/10 00:56:56;;;;;;;;;18.00;16.00;;;;;11.40;85.21;100948.13;5022124;28;45466;-78
2022/10/10 00:59:23;;;;;;;;;16.33;16.00;;;;;11.41;85.37;100947.97;5021927;28;45372;-78
2022/10/10 01:01:49;;;;;;;;;20.33;15.33;;;;;11.32;85.50;100933.84;5003907;28;46228;-78
2022/10/10 01:04:35;;;;;;;;;14.67;14.00;;;;;11.38;85.74;100948.31;5004345;28;45322;-78
2022/10/10 01:07:10;;;;;;;;;14.67;14.00;;;;;11.38;85.91;100950.97;5020604;28;47143;-78
2022/10/10 01:09:38;;;;;;;;;16.67;16.00;;;;;11.44;85.48;100954.75;5003825;28;48336;-78
2022/10/10 01:12:22;;;;;;;;;17.00;17.00;;;;;11.42;85.40;100960.25;5021618;28;45678;-78
2022/10/10 01:15:19;;;;;;;;;16.00;14.33;;;;;11.38;85.14;100964.28;5003863;28;45488;-78
2022/10/10 01:18:17;;;;;;;;;17.00;16.67;;;;;11.46;85.19;100966.88;5020263;28;47298;-78
2022/10/10 01:21:10;;;;;;;;;17.33;17.00;;;;;11.43;84.90;100948.59;5003655;28;47050;-78
2022/10/10 01:24:09;;;;;;;;;13.33;12.67;;;;;11.47;84.84;100959.75;5021587;28;45348;-78
2022/10/10 01:27:11;;;;;;;;;16.67;15.00;;;;;11.41;85.05;100950.63;5021742;28;45246;-78
2022/10/10 01:29:38;;;;;;;;;11.67;11.67;;;;;11.34;85.23;100941.66;5010988;28;46146;-78
2022/10/10 01:32:11;;;;;;;;;14.33;13.67;;;;;11.34;85.58;100942.50;5021127;28;46689;-78
2022/10/10 01:34:45;;;;;;;;;13.00;13.00;;;;;11.42;85.73;100954.09;5003666;28;45333;-78
2022/10/10 01:37:33;;;;;;;;;15.00;15.00;;;;;11.39;85.81;100947.28;5020090;28;45359;-78
2022/10/10 01:40:47;;;;;;;;;15.00;15.00;;;;;11.42;86.00;100949.63;5021391;28;45395;-78
2022/10/10 01:43:13;;;;;;;;;14.67;13.00;;;;;11.39;86.05;100947.28;5016217;28;47494;-78
2022/10/10 01:45:50;;;;;;;;;14.67;13.33;;;;;11.37;86.12;100941.31;5020908;28;45360;-78
2022/10/10 01:48:22;;;;;;;;;15.00;15.00;;;;;11.34;85.89;100942.50;5021451;28;45241;-78
2022/10/10 01:50:58;;;;;;;;;15.00;15.00;;;;;11.42;86.12;100951.44;5020871;28;45584;-78
2022/10/10 01:53:48;;;;;;;;;15.67;14.67;;;;;11.43;85.98;100935.28;5019698;28;47988;-79
2022/10/10 01:56:29;;;;;;;;;12.33;12.00;;;;;11.41;86.25;100931.16;5019243;28;45298;-78
2022/10/10 01:59:21;;;;;;;;;11.67;11.67;;;;;11.45;86.30;100937.78;5021147;28;45314;-78
2022/10/10 02:01:53;;;;;;;;;14.67;13.67;;;;;11.46;86.66;100940.25;5002937;28;46543;-78
2022/10/10 02:05:03;;;;;;;;;13.33;12.67;;;;;11.46;86.82;100939.44;5020911;28;45681;-78
2022/10/10 02:07:45;;;;;;;;;16.00;14.67;;;;;11.45;86.58;100937.78;4959589;28;45543;-78
2022/10/10 02:10:17;;;;;;;;;14.67;13.00;;;;;11.48;86.83;100935.59;4997827;28;45502;-78
2022/10/10 02:12:45;;;;;;;;;11.00;11.00;;;;;11.41;86.72;100923.16;5020883;28;45518;-79
2022/10/10 02:15:15;;;;;;;;;15.00;15.00;;;;;11.49;86.85;100936.41;5002512;28;47836;-78
2022/10/10 02:17:45;;;;;;;;;15.67;14.00;;;;;11.45;86.48;100940.44;5020872;28;45360;-78
2022/10/10 02:20:12;;;;;;;;;14.67;14.33;;;;;11.44;87.05;100933.47;5002999;28;45405;-78
2022/10/10 02:22:42;;;;;;;;;13.67;13.67;;;;;11.41;86.50;100925.84;5019375;28;46418;-78
2022/10/10 02:25:08;;;;;;;;;14.00;13.00;;;;;11.41;86.29;100931.16;5020581;28;46299;-78
2022/10/10 02:28:04;;;;;;;;;15.67;14.67;;;;;11.41;86.58;100928.50;5020724;28;45699;-78
2022/10/10 02:30:36;;;;;;;;;10.33;10.33;;;;;11.47;86.74;100941.09;5002558;28;45365;-78
2022/10/10 02:33:04;;;;;;;;;12.67;12.67;;;;;11.42;87.03;100933.66;5020679;28;45356;-78
2022/10/10 02:35:36;;;;;;;;;12.33;11.67;;;;;11.43;86.53;100923.84;5020245;28;45340;-79
2022/10/10 02:38:07;;;;;;;;;10.67;10.67;;;;;11.42;86.79;100922.16;5020735;28;45398;-77
2022/10/10 02:40:34;;;;;;;;;10.00;10.00;;;;;11.41;86.34;100918.69;5019039;28;45306;-78
2022/10/10 02:43:05;;;;;;;;;11.00;10.00;;;;;11.37;86.57;100928.00;5020509;28;45300;-78
2022/10/10 02:45:32;;;;;;;;;11.00;11.00;;;;;11.35;86.79;100925.50;5018667;28;45790;-79
2022/10/10 02:48:00;;;;;;;;;11.50;11.50;;;;;11.33;86.83;100921.38;5020438;28;45368;-78
2022/10/10 02:50:27;;;;;;;;;11.33;10.00;;;;;11.34;86.89;100934.50;5020358;28;45242;-78
2022/10/10 02:52:53;;;;;;;;;16.33;14.67;;;;;11.30;86.80;100927.03;5019969;28;45485;-78
2022/10/10 02:55:18;;;;;;;;;16.67;14.33;;;;;11.33;86.95;100940.00;5018735;28;46946;-78
2022/10/10 02:57:44;;;;;;;;;16.67;16.67;;;;;11.28;87.06;100932.53;5020162;28;45278;-78
2022/10/10 03:00:10;;;;;;;;;14.67;14.67;;;;;11.22;86.84;100930.56;5002019;28;45431;-78
2022/10/10 03:02:35;;;;;;;;;11.00;11.00;;;;;11.23;87.07;100930.41;5020095;28;45471;-78
2022/10/10 03:05:00;;;;;;;;;17.00;14.00;;;;;11.26;87.55;100936.38;5019733;28;46200;-78
2022/10/10 03:07:26;;;;;;;;;14.67;12.67;;;;;11.24;87.08;100940.06;5019865;28;45482;-78
2022/10/10 03:09:51;;;;;;;;;14.67;14.67;;;;;11.30;87.16;100940.34;5001824;28;45545;-80
2022/10/10 03:12:17;;;;;;;;;11.33;11.33;;;;;11.16;87.04;100913.47;5019976;28;45686;-78
2022/10/10 03:14:43;;;;;;;;;11.33;11.00;;;;;11.23;87.39;100929.59;5019764;28;46283;-79
2022/10/10 03:17:08;;;;;;;;;11.00;11.00;;;;;11.23;87.09;100937.56;5019642;28;45395;-78
2022/10/10 03:19:33;;;;;;;;;15.00;13.00;;;;;11.22;87.16;100930.56;5020053;28;45480;-78
2022/10/10 03:21:59;;;;;;;;;11.67;11.67;;;;;11.20;87.14;100921.97;5018462;28;46209;-78
2022/10/10 03:24:24;;;;;;;;;13.00;13.00;;;;;11.22;87.01;100934.06;5019618;28;46348;-78
2022/10/10 03:26:50;;;;;;;;;12.33;12.00;;;;;11.17;86.94;100922.28;5018443;28;45383;-78
2022/10/10 03:29:15;;;;;;;;;10.33;10.33;;;;;11.16;87.31;100924.13;5019725;28;45350;-78
2022/10/10 03:31:40;;;;;;;;;10.33;10.33;;;;;11.26;87.62;100939.06;5001763;28;46283;-79
2022/10/10 03:34:06;;;;;;;;;12.33;12.33;;;;;11.18;87.29;100930.09;5019562;28;45454;-79
2022/10/10 03:36:32;;;;;;;;;15.00;14.67;;;;;11.17;87.34;100927.63;5001692;28;45320;-78
2022/10/10 03:38:57;;;;;;;;;14.67;14.67;;;;;11.22;87.24;100922.59;5019593;28;45254;-78
2022/10/10 03:41:22;;;;;;;;;12.33;12.00;;;;;11.19;86.97;100922.94;5001643;28;47123;-78
2022/10/10 03:43:48;;;;;;;;;13.00;12.00;;;;;11.18;87.52;100919.47;5019200;28;45351;-78
2022/10/10 03:46:13;;;;;;;;;12.00;12.00;;;;;11.20;87.64;100921.97;5019424;28;45246;-78
2022/10/10 03:48:38;;;;;;;;;13.00;13.00;;;;;11.21;87.71;100924.44;5019490;28;45549;-78
2022/10/10 03:51:05;;;;;;;;;16.33;15.67;;;;;11.25;88.13;100919.59;5001439;28;46012;-78
2022/10/10 03:53:30;;;;;;;;;14.00;12.67;;;;;11.26;87.62;100926.59;5019303;28;45302;-78
2022/10/10 03:55:56;;;;;;;;;14.00;11.00;;;;;11.30;88.24;100945.66;5019215;28;45296;-78
2022/10/10 03:58:21;;;;;;;;;15.00;12.33;;;;;11.32;88.48;100930.38;5001331;28;45335;-78
2022/10/10 04:00:58;;;;;;;;;11.67;11.67;;;;;11.31;88.50;100929.53;5019120;28;45618;-78
2022/10/10 04:03:24;;;;;;;;;16.33;13.00;;;;;11.43;88.41;100943.28;5017772;28;47264;-78
2022/10/10 04:05:50;;;;;;;;;16.33;14.67;;;;;11.40;88.69;100935.63;5019108;28;45488;-78
2022/10/10 04:08:15;;;;;;;;;16.00;15.00;;;;;11.41;88.44;100934.66;5001270;28;45280;-78
2022/10/10 04:10:40;;;;;;;;;15.33;15.33;;;;;11.41;88.50;100932.00;5017673;28;45747;-78
2022/10/10 04:13:06;;;;;;;;;16.00;14.00;;;;;11.41;88.21;100934.66;5001044;28;46948;-78
2022/10/10 04:15:31;;;;;;;;;15.33;13.67;;;;;11.49;87.65;100936.41;5001137;28;45309;-79
2022/10/10 04:17:57;;;;;;;;;14.67;14.67;;;;;11.37;87.94;100917.34;5018401;28;45380;-78
2022/10/10 04:20:23;;;;;;;;;9.00;9.00;;;;;11.47;87.51;100938.44;5000987;28;46957;-78
2022/10/10 04:22:49;;;;;;;;;12.00;12.00;;;;;11.41;87.73;100918.69;5019029;28;45393;-78
2022/10/10 04:25:14;;;;;;;;;12.00;12.00;;;;;11.45;87.94;100924.47;5018743;28;45552;-78
2022/10/10 04:27:39;;;;;;;;;16.00;13.67;;;;;11.48;87.98;100929.44;5019358;28;45412;-78
2022/10/10 04:30:06;;;;;;;;;15.33;15.33;;;;;11.46;88.06;100920.78;5000801;28;46679;-78
2022/10/10 04:32:31;;;;;;;;;11.67;11.67;;;;;11.52;88.11;100933.41;5018614;28;45421;-78
2022/10/10 04:34:57;;;;;;;;;10.33;9.33;;;;;11.48;88.16;100930.28;5018853;28;45265;-78
2022/10/10 04:37:22;;;;;;;;;11.67;11.00;;;;;11.41;88.11;100924.00;5017508;28;45361;-79
2022/10/10 04:39:47;;;;;;;;;15.00;14.33;;;;;11.48;88.41;100930.28;5001081;28;46090;-78
2022/10/10 04:42:13;;;;;;;;;14.67;14.67;;;;;11.49;88.52;100923.94;5018788;28;46070;-78
2022/10/10 04:44:38;;;;;;;;;11.00;11.00;;;;;11.49;88.88;100923.94;5018703;28;45396;-78
2022/10/10 04:47:03;;;;;;;;;14.67;14.00;;;;;11.51;88.53;100909.63;5018682;28;45548;-78
2022/10/10 04:49:29;;;;;;;;;15.00;13.67;;;;;11.57;88.78;100912.44;4997990;28;46022;-81
2022/10/10 04:51:54;;;;;;;;;21.33;18.00;;;;;11.62;88.84;100930.53;5015759;28;46175;-78
2022/10/10 04:54:19;;;;;;;;;16.00;16.00;;;;;11.60;88.77;100924.53;5018469;28;45320;-78
2022/10/10 04:56:45;;;;;;;;;21.00;18.00;;;;;11.63;88.65;100921.53;5018572;28;45336;-78
2022/10/10 04:59:10;;;;;;;;;21.67;20.33;;;;;11.64;88.85;100922.38;5018467;28;45525;-78
2022/10/10 05:01:36;;;;;;;;;19.00;17.67;;;;;11.68;88.82;100927.16;5000485;28;47280;-78
2022/10/10 05:04:02;;;;;;;;;23.00;19.33;;;;;11.69;88.88;100914.66;5018640;28;45187;-78
2022/10/10 05:06:27;;;;;;;;;23.00;23.00;;;;;11.71;88.91;100908.16;5000469;28;45390;-78
2022/10/10 05:08:53;;;;;;;;;22.33;19.67;;;;;11.73;89.44;100906.16;5018682;28;45497;-78
2022/10/10 05:11:18;;;;;;;;;25.67;23.00;;;;;11.76;89.46;100915.59;5018202;28;45265;-78
2022/10/10 05:13:43;;;;;;;;;26.00;23.67;;;;;11.72;89.34;100906.31;5017943;28;45353;-78
2022/10/10 05:16:08;;;;;;;;;20.67;20.33;;;;;11.83;89.47;100919.22;5018649;28;45325;-80
2022/10/10 05:18:37;;;;;;;;;18.67;16.67;;;;;11.82;89.42;100916.75;5018371;28;45163;-78
2022/10/10 05:21:03;;;;;;;;;25.33;23.00;;;;;11.76;89.31;100904.16;5018371;28;46209;-78
2022/10/10 05:23:29;;;;;;;;;21.00;20.67;;;;;11.83;89.28;100921.88;5018038;28;45341;-78
2022/10/10 05:25:54;;;;;;;;;21.33;21.00;;;;;11.83;89.23;100921.06;5018562;28;45291;-78
2022/10/10 05:28:19;;;;;;;;;21.00;20.00;;;;;11.80;89.07;100914.28;5000146;28;46081;-78
2022/10/10 05:30:45;;;;;;;;;22.00;18.33;;;;;11.81;89.27;100905.28;5002915;28;46925;-78
2022/10/10 05:33:10;;;;;;;;;19.00;18.00;;;;;11.81;89.06;100913.25;5020131;28;45352;-78
2022/10/10 05:35:35;;;;;;;;;21.00;20.33;;;;;11.77;89.06;100906.63;5020270;28;45293;-78
2022/10/10 05:38:01;;;;;;;;;17.00;16.00;;;;;11.76;89.61;100902.28;5021579;28;45435;-77
2022/10/10 05:40:27;;;;;;;;;17.67;17.67;;;;;11.79;89.52;100911.78;5021249;28;45541;-78
2022/10/10 05:42:52;;;;;;;;;18.67;18.33;;;;;11.79;89.67;100915.25;5003396;28;45388;-78
2022/10/10 05:45:17;;;;;;;;;21.00;18.00;;;;;11.75;89.53;100911.31;5003316;28;45412;-78
2022/10/10 05:47:43;;;;;;;;;20.67;19.00;;;;;11.73;89.47;100914.13;5003352;28;46344;-78
2022/10/10 05:50:24;;;;;;;;;21.33;20.67;;;;;11.74;89.66;100909.66;5021194;28;46059;-78
2022/10/10 05:52:49;;;;;;;;;20.67;18.67;;;;;11.76;89.78;100925.44;5019968;28;45559;-78
2022/10/10 05:55:15;;;;;;;;;23.33;20.00;;;;;11.78;89.56;100918.94;5019297;28;45451;-77
2022/10/10 05:57:40;;;;;;;;;22.00;19.00;;;;;11.77;89.72;100927.09;5020968;28;45523;-77
2022/10/10 06:00:06;;;;;;;;;17.00;16.67;;;;;11.77;89.46;100930.59;5002748;28;48350;-77
2022/10/10 06:02:31;;;;;;;;;16.67;15.67;;;;;11.76;89.68;100930.78;5021114;28;45334;-77
2022/10/10 06:04:57;;;;;;;;;15.67;14.00;;;;;11.68;89.91;100921.84;5021045;28;45291;-78
2022/10/10 06:07:22;;;;;;;;;15.33;15.33;;;;;11.70;90.09;100925.13;5020878;28;45262;-78
2022/10/10 06:09:47;;;;;;;;;14.00;14.00;;;;;11.71;90.40;100925.97;5020991;28;46402;-78
2022/10/10 06:12:12;;;;;;;;;16.00;15.00;;;;;11.73;90.27;100923.94;5003072;28;45272;-78
2022/10/10 06:14:38;;;;;;;;;18.33;15.00;;;;;11.72;90.91;100923.13;5020865;28;45348;-77
2022/10/10 06:17:03;;;;;;;;;18.00;18.00;;;;;11.73;90.47;100921.28;5013880;28;46094;-81
2022/10/10 06:19:29;;;;;;;;;20.67;19.33;;;;;11.77;90.59;100919.13;5002727;28;48142;-78
2022/10/10 06:21:54;;;;;;;;;19.00;19.00;;;;;11.73;90.01;100913.31;5019350;28;45297;-77
2022/10/10 06:24:19;;;;;;;;;19.67;19.33;;;;;11.73;90.27;100915.97;5020991;28;45455;-78
2022/10/10 06:26:45;;;;;;;;;23.00;20.33;;;;;11.79;90.15;100919.78;5002508;28;45539;-81
2022/10/10 06:29:10;;;;;;;;;19.33;18.00;;;;;11.72;90.21;100916.97;5002378;28;47161;-79
2022/10/10 06:31:38;;;;;;;;;22.67;17.67;;;;;11.74;90.53;100915.78;5020422;28;45328;-80
2022/10/10 06:34:04;;;;;;;;;20.00;18.33;;;;;11.74;90.36;100917.63;5020755;28;45350;-79
2022/10/10 06:36:29;;;;;;;;;18.00;17.00;;;;;11.79;90.90;100930.44;5025235;28;46070;-77
2022/10/10 06:38:55;;;;;;;;;18.67;18.33;;;;;11.80;90.95;100938.25;5015391;28;46002;-80
2022/10/10 06:41:20;;;;;;;;;20.33;19.33;;;;;11.89;90.63;100941.66;5001907;28;45246;-79
2022/10/10 06:43:47;;;;;;;;;19.33;17.67;;;;;11.93;90.72;100936.78;5002593;28;45390;-79
2022/10/10 06:46:13;;;;;;;;;16.67;16.67;;;;;11.95;91.53;100937.47;5020206;28;45310;-77
2022/10/10 06:48:38;;;;;;;;;20.00;18.67;;;;;12.06;91.29;100942.34;5017591;28;47064;-78
2022/10/10 06:51:07;;;;;;;;;18.33;18.00;;;;;12.11;91.51;100941.84;5016986;28;45268;-77
2022/10/10 06:53:33;;;;;;;;;18.00;17.00;;;;;12.14;91.64;100944.16;5003419;28;45455;-77
2022/10/10 06:55:59;;;;;;;;;17.67;16.67;;;;;12.17;91.54;100941.13;5020194;28;45495;-78
2022/10/10 06:58:26;;;;;;;;;18.00;17.00;;;;;12.28;91.75;100957.69;5019451;28;45323;-78
2022/10/10 07:01:00;;;;;;;;;17.67;17.67;;;;;12.27;91.86;100948.88;5001858;28;45995;-78
2022/10/10 07:03:26;;;;;;;;;19.33;17.33;;;;;12.36;91.97;100962.94;5019838;28;45376;-78
2022/10/10 07:05:55;;;;;;;;;18.33;16.00;;;;;12.39;92.44;100964.44;5019566;28;45483;-79
2022/10/10 07:08:21;;;;;;;;;18.33;17.67;;;;;12.52;92.30;100971.81;5019539;28;45344;-80
2022/10/10 07:10:47;;;;;;;;;21.00;16.67;;;;;12.53;92.53;100968.97;5019770;28;45392;-83
2022/10/10 07:13:13;;;;;;;;;15.33;13.00;;;;;12.58;92.51;100963.09;5019583;28;45426;-81
2022/10/10 07:15:38;;;;;;;;;19.00;18.00;;;;;12.63;92.92;100972.19;5019653;28;45415;-82
2022/10/10 07:18:04;;;;;;;;;14.33;14.33;;;;;12.77;92.77;100972.38;5001659;28;47538;-83
2022/10/10 07:20:29;;;;;;;;;14.33;14.33;;;;;12.87;93.17;100978.28;5019679;28;45436;-82
2022/10/10 07:22:54;;;;;;;;;14.67;13.67;;;;;12.91;93.34;100978.75;5019972;28;45616;-82
2022/10/10 07:25:20;;;;;;;;;14.00;13.00;;;;;13.06;93.57;100983.25;5019648;28;45305;-81
2022/10/10 07:27:45;;;;;;;;;15.33;14.33;;;;;13.19;93.69;100993.25;5019687;28;45589;-81
2022/10/10 07:30:11;;;;;;;;;15.67;12.67;;;;;13.31;93.74;100996.28;5019387;28;45246;-81
2022/10/10 07:32:36;;;;;;;;;11.33;11.33;;;;;13.33;94.05;100984.41;5016601;28;45301;-80
2022/10/10 07:35:02;;;;;;;;;11.67;11.67;;;;;13.44;94.02;100995.63;5019568;28;45447;-79
2022/10/10 07:37:27;;;;;;;;;12.33;12.33;;;;;13.61;93.74;100996.25;5016329;28;48152;-80
2022/10/10 07:39:53;;;;;;;;;13.00;12.33;;;;;13.76;93.89;101010.41;5019305;28;45283;-80
2022/10/10 07:42:18;;;;;;;;;17.67;17.00;;;;;13.86;93.87;101004.75;5019580;28;45285;-80
2022/10/10 07:44:44;;;;;;;;;15.67;12.67;;;;;13.94;93.84;101001.13;5018034;28;45421;-80
2022/10/10 07:47:09;;;;;;;;;14.33;14.33;;;;;14.07;93.48;101015.66;5001119;28;47542;-79
2022/10/10 07:49:35;;;;;;;;;11.67;11.67;;;;;14.06;93.35;100997.94;5018994;28;45426;-78
2022/10/10 07:52:00;;;;;;;;;13.67;12.67;;;;;14.21;93.16;101013.91;5018635;28;45479;-81
2022/10/10 07:54:26;;;;;;;;;12.00;12.00;;;;;14.31;93.26;101011.72;5017897;28;45542;-80
2022/10/10 07:56:51;;;;;;;;;10.33;10.00;;;;;14.38;93.32;100999.28;5019132;28;45404;-80
2022/10/10 07:59:16;;;;;;;;;15.00;13.67;;;;;14.40;93.41;100991.06;5018914;28;45347;-81
2022/10/10 08:01:42;;;;;;;;;16.67;13.00;;;;;14.55;93.59;100996.31;5015671;28;45509;-80
2022/10/10 08:04:07;;;;;;;;;14.00;13.00;;;;;14.68;93.18;101000.91;4997756;28;46144;-82
2022/10/10 08:06:32;;;;;;;;;14.00;12.00;;;;;14.74;93.21;100991.28;5016873;28;45340;-80
2022/10/10 08:08:58;;;;;;;;;15.00;14.00;;;;;14.84;93.26;101004.31;5000976;28;45404;-84
2022/10/10 08:11:23;;;;;;;;;15.33;12.33;;;;;14.89;93.54;100997.38;5000060;28;45454;-80
2022/10/10 08:13:49;;;;;;;;;18.00;15.00;;;;;15.00;93.37;101006.69;5015339;28;45535;-85
2022/10/10 08:16:15;;;;;;;;;10.33;10.33;;;;;14.99;93.27;100986.31;5001708;28;47405;-87
2022/10/10 08:18:40;;;;;;;;;14.33;14.33;;;;;15.14;93.11;100991.53;5011699;28;45480;-83
2022/10/10 08:21:09;;;;;;;;;15.33;13.33;;;;;15.27;93.02;101003.34;5013735;28;45301;-80
2022/10/10 08:23:35;;;;;;;;;15.00;13.00;;;;;15.41;93.10;101012.25;5016675;28;47445;-78
2022/10/10 08:26:03;;;;;;;;;15.33;14.00;;;;;15.51;92.75;101011.88;5000407;28;47364;-81
2022/10/10 08:28:29;;;;;;;;;15.33;15.33;;;;;15.52;92.68;101011.69;5017088;28;46025;-80
2022/10/10 08:30:54;;;;;;;;;16.67;14.33;;;;;15.63;92.84;101014.81;5010927;28;45303;-81
2022/10/10 08:33:20;;;;;;;;;14.00;13.00;;;;;15.68;92.57;101011.53;4994163;28;46752;-80
2022/10/10 08:35:45;;;;;;;;;12.33;12.33;;;;;15.75;92.47;101015.84;5018205;28;45521;-82
2022/10/10 08:38:11;;;;;;;;;14.00;14.00;;;;;15.77;91.81;101004.94;5017495;28;45317;-82
2022/10/10 08:40:49;;;;;;;;;18.00;16.00;;;;;15.87;92.10;101032.16;5017284;28;45454;-82
2022/10/10 08:43:28;;;;;;;;;13.00;13.00;;;;;15.94;91.59;101023.31;5018364;28;46753;-79
2022/10/10 08:45:56;;;;;;;;;14.67;13.00;;;;;16.02;91.24;101037.38;5016216;28;47577;-80
2022/10/10 08:48:27;;;;;;;;;13.67;13.67;;;;;16.08;91.53;101037.63;5017161;28;45351;-79
2022/10/10 08:51:00;;;;;;;;;16.33;15.00;;;;;16.08;91.11;101038.44;5000617;28;45363;-79
2022/10/10 08:53:46;;;;;;;;;15.67;13.67;;;;;16.14;90.97;101047.53;5017847;28;45391;-79
2022/10/10 08:56:16;;;;;;;;;16.33;14.00;;;;;16.28;90.83;101053.72;5015410;28;45566;-79
2022/10/10 08:58:47;;;;;;;;;18.33;16.33;;;;;16.32;90.72;101049.63;4996996;28;45775;-80
2022/10/10 09:01:22;;;;;;;;;13.00;12.33;;;;;16.40;90.88;101045.88;5012345;28;45377;-77
2022/10/10 09:03:50;;;;;;;;;14.67;13.67;;;;;16.51;90.77;101061.38;5016974;28;46396;-79
2022/10/10 09:06:16;;;;;;;;;14.33;14.33;;;;;16.58;89.59;101061.38;5021623;28;46628;-80
2022/10/10 09:09:19;;;;;;;;;17.00;14.67;;;;;16.65;90.01;101062.19;5021349;28;45262;-78
2022/10/10 09:12:14;;;;;;;;;16.33;14.00;;;;;16.68;89.53;101047.56;5021754;28;45588;-79
2022/10/10 09:14:57;;;;;;;;;13.67;13.00;;;;;16.81;89.24;101059.28;5021320;28;45612;-80
2022/10/10 09:17:40;;;;;;;;;15.00;14.67;;;;;16.82;88.91;101047.53;5008682;28;45406;-79
2022/10/10 09:20:09;;;;;;;;;14.67;14.67;;;;;16.96;89.35;101065.25;5020166;28;45490;-80
2022/10/10 09:23:00;;;;;;;;;15.00;11.67;;;;;17.00;88.83;101058.44;5003712;28;45674;-79
2022/10/10 09:25:32;;;;;;;;;16.33;15.33;;;;;17.08;88.39;101056.59;5021403;28;45478;-80
2022/10/10 09:28:14;;;;;;;;;17.00;14.00;;;;;17.14;88.38;101055.75;5019771;28;48657;-79
2022/10/10 09:30:45;;;;;;;;;16.00;14.67;;;;;17.07;87.37;101037.00;5019572;28;46604;-80
2022/10/10 09:33:37;;;;;;;;;15.67;14.67;;;;;17.28;87.42;101057.38;5021775;28;45360;-79
2022/10/10 09:36:09;;;;;;;;;14.67;13.33;;;;;17.32;86.73;101055.09;5002275;28;46118;-79
2022/10/10 09:38:49;;;;;;;;;15.00;15.00;;;;;17.41;87.21;101069.09;5021494;28;45324;-79
2022/10/10 09:41:26;;;;;;;;;15.33;14.00;;;;;17.40;86.78;101065.59;5028629;28;45459;-80
2022/10/10 09:43:57;;;;;;;;;15.00;13.33;;;;;17.40;86.31;101057.56;5025980;28;45387;-78
2022/10/10 09:46:24;;;;;;;;;16.33;15.33;;;;;17.39;86.24;101074.69;5021109;28;45507;-79
2022/10/10 09:48:52;;;;;;;;;18.00;13.00;;;;;17.39;85.83;101077.38;5003120;28;47628;-78
2022/10/10 09:51:19;;;;;;;;;15.33;15.33;;;;;17.44;86.52;101075.91;5021201;28;45436;-79
2022/10/10 10:13:42;;;;;;;;;16.33;16.00;;;;;17.27;88.40;101104.06;5120949;27;45296;-82
2022/10/10 10:16:12;;;;;;;;;17.33;15.67;;;;;17.38;88.39;101099.91;5143934;27;45495;-83
2022/10/10 10:18:41;;;;;;;;;13.33;13.00;;;;;17.53;87.99;101112.25;5107898;27;45322;-82
2022/10/10 10:21:07;;;;;;;;;13.33;12.67;;;;;17.63;87.93;101123.38;5111816;27;45334;-82
2022/10/10 10:23:54;;;;;;;;;17.67;17.67;;;;;17.71;87.59;101125.00;5110039;27;47293;-83
2022/10/10 10:26:19;;;;;;;;;16.00;15.33;;;;;17.78;87.30;101127.69;5108561;27;45672;-82
2022/10/10 10:28:46;;;;;;;;;13.33;13.33;;;;;17.74;87.25;101113.00;5114446;27;45396;-82
2022/10/10 10:31:26;;;;;;;;;18.33;15.33;;;;;17.86;87.13;101118.53;5116553;27;45556;-80
2022/10/10 10:34:26;;;;;;;;;16.00;14.67;;;;;17.96;86.75;101123.47;5112364;27;45152;-81
2022/10/10 10:37:10;;;;;;;;;18.33;17.33;;;;;18.01;86.39;101121.78;5102441;27;45518;-81
2022/10/10 10:39:58;;;;;;;;;19.00;17.67;;;;;18.10;87.02;101126.91;5108069;27;45379;-79
2022/10/10 10:42:32;;;;;;;;;21.00;21.00;;;;;18.21;86.31;101145.09;5105232;27;45596;-80
2022/10/10 10:45:22;;;;;;;;;17.67;17.67;;;;;18.16;86.35;101124.22;5111069;27;48175;-82
2022/10/10 10:48:20;;;;;;;;;16.33;15.67;;;;;18.31;86.38;101135.72;5106786;27;45379;-81
2022/10/10 10:50:58;;;;;;;;;21.00;19.67;;;;;18.49;85.33;101148.41;5108883;27;45164;-83
2022/10/10 10:53:39;;;;;;;;;21.67;20.67;;;;;18.60;85.41;101149.59;5112183;27;45341;-82
2022/10/10 10:56:34;;;;;;;;;17.33;16.33;;;;;18.69;85.23;101151.00;5113534;27;47772;-82
2022/10/10 10:59:12;;;;;;;;;17.33;17.33;;;;;18.77;84.66;101155.28;5108310;27;45453;-82
2022/10/10 11:02:05;;;;;;;;;20.00;19.00;;;;;18.84;84.59;101158.75;5112582;27;45312;-82
2022/10/10 11:04:36;;;;;;;;;17.67;17.67;;;;;18.93;84.26;101154.72;5114928;27;45221;-82
2022/10/10 11:07:19;;;;;;;;;16.67;16.67;;;;;18.95;83.62;101157.22;5109552;27;45449;-81
2022/10/10 11:09:59;;;;;;;;;13.33;13.00;;;;;19.14;83.99;101162.66;5109610;27;45335;-79
2022/10/10 11:12:50;;;;;;;;;19.67;18.67;;;;;19.11;83.24;101161.22;5110783;27;45471;-81
2022/10/10 11:15:24;;;;;;;;;18.00;17.67;;;;;19.16;83.04;101165.97;5091883;27;45435;-80
2022/10/10 11:18:02;;;;;;;;;19.00;18.67;;;;;19.23;82.65;101177.50;5127490;27;47430;-80
2022/10/10 11:20:55;;;;;;;;;21.33;20.00;;;;;19.22;81.94;101183.94;5100706;27;45291;-80
2022/10/10 11:23:27;;;;;;;;;19.33;19.00;;;;;19.25;82.01;101190.75;5096888;27;45506;-81
2022/10/10 11:26:04;;;;;;;;;21.33;20.00;;;;;19.07;81.96;101162.69;5102875;27;47267;-83
2022/10/10 11:28:42;;;;;;;;;22.33;20.67;;;;;19.15;81.17;101172.38;5099955;27;45727;-80
2022/10/10 11:31:15;;;;;;;;;21.67;20.33;;;;;19.17;81.14;101186.47;5099560;27;45326;-82
2022/10/10 11:33:45;;;;;;;;;20.33;20.00;;;;;19.12;81.37;101180.91;5096098;27;45454;-83
2022/10/10 11:36:18;;;;;;;;;22.67;20.67;;;;;19.21;81.78;101195.75;5098335;27;45389;-81
2022/10/10 11:39:16;;;;;;;;;21.33;19.00;;;;;19.16;81.89;101182.13;5092904;27;45392;-80
2022/10/10 11:41:58;;;;;;;;;18.00;17.67;;;;;19.28;81.47;101195.69;5077729;27;45801;-79
2022/10/10 11:44:36;;;;;;;;;19.67;19.67;;;;;19.32;81.49;101188.81;5100259;27;45296;-82